Time;durP1;ratioP1;P1;durP2;ratioP2;P2;SDS_P1;SDS_P2;PMS_P1;PMS_P2;Temp;Humidity;BMP_temperature;BMP_pressure;BME280_temperature;BME280_humidity;BME280_pressure;Samples;Min_cycle;Max_cycle;Signal;HPM_P1;HPM_P2
2022/11/08 00:03:29;;;;;;;4.97;3.40;;;16.70;57.30;;;;;;5058801;28;45466;-73
2022/11/08 00:14:10;;;;;;;5.30;3.40;;;16.60;57.40;;;;;;5064948;28;45350;-73
2022/11/08 00:16:37;;;;;;;7.15;3.83;;;16.60;57.40;;;;;;5067465;28;45249;-73
2022/11/08 00:19:04;;;;;;;5.15;3.78;;;16.60;57.90;;;;;;5067547;28;45423;-74
2022/11/08 00:21:31;;;;;;;5.13;3.75;;;16.60;57.20;;;;;;5067335;28;46386;-75
2022/11/08 00:23:58;;;;;;;3.40;3.05;;;16.60;57.20;;;;;;5067203;28;45219;-74
2022/11/08 00:26:25;;;;;;;4.35;3.55;;;16.60;57.20;;;;;;5067632;28;45341;-73
2022/11/08 00:28:52;;;;;;;5.68;4.03;;;16.60;57.20;;;;;;5067813;28;45427;-73
2022/11/08 00:31:20;;;;;;;3.85;3.17;;;16.60;57.10;;;;;;5066591;28;45181;-75
2022/11/08 00:33:47;;;;;;;5.72;3.83;;;16.60;57.10;;;;;;5066686;28;45230;-73
2022/11/08 00:36:14;;;;;;;3.90;3.15;;;16.60;57.10;;;;;;5067590;28;45400;-73
2022/11/08 00:38:42;;;;;;;5.28;3.45;;;16.60;57.00;;;;;;5067694;28;45223;-74
2022/11/08 00:41:09;;;;;;;4.15;3.25;;;16.60;57.10;;;;;;5067255;28;45365;-76
2022/11/08 00:43:36;;;;;;;4.88;3.40;;;16.60;57.10;;;;;;5067166;28;45197;-71
2022/11/08 00:46:03;;;;;;;7.70;3.05;;;16.60;57.10;;;;;;5067216;28;45195;-75
2022/11/08 00:48:31;;;;;;;3.53;3.15;;;16.60;57.10;;;;;;5067357;28;45459;-75
2022/11/08 00:51:01;;;;;;;5.90;3.20;;;16.60;57.10;;;;;;5067044;28;45435;-72
2022/11/08 00:53:28;;;;;;;6.40;3.40;;;16.50;57.20;;;;;;5067181;28;45258;-71
2022/11/08 00:55:59;;;;;;;6.03;3.13;;;16.50;57.30;;;;;;5062218;28;45606;-71
2022/11/08 00:58:26;;;;;;;4.43;4.03;;;16.50;57.40;;;;;;5046483;28;45402;-71
2022/11/08 01:00:53;;;;;;;6.78;5.03;;;16.50;57.20;;;;;;5046570;28;45214;-72
2022/11/08 01:03:20;;;;;;;6.53;4.78;;;16.50;57.00;;;;;;5046651;28;45247;-75
2022/11/08 01:05:48;;;;;;;8.32;3.88;;;16.50;57.00;;;;;;5061644;28;45295;-72
2022/11/08 01:08:15;;;;;;;4.57;4.10;;;16.40;57.10;;;;;;5067251;28;45301;-73
2022/11/08 01:10:42;;;;;;;16.08;7.47;;;16.40;57.00;;;;;;5066696;28;47401;-71
2022/11/08 01:13:10;;;;;;;27.63;20.80;;;16.40;57.00;;;;;;5071543;28;45331;-73
2022/11/08 01:15:39;;;;;;;16.75;14.63;;;16.40;57.40;;;;;;5073533;28;45258;-73
2022/11/08 01:18:06;;;;;;;15.05;13.40;;;16.50;57.80;;;;;;5072806;28;45465;-71
2022/11/08 01:20:33;;;;;;;14.77;11.75;;;16.60;57.10;;;;;;5072629;28;45402;-74
2022/11/08 01:23:01;;;;;;;12.23;10.95;;;16.60;56.80;;;;;;5073314;28;45293;-75
2022/11/08 01:25:28;;;;;;;11.25;10.05;;;16.70;56.60;;;;;;5073232;28;45337;-73
2022/11/08 01:27:55;;;;;;;15.75;13.27;;;16.80;56.80;;;;;;5073569;28;45472;-72
2022/11/08 01:30:22;;;;;;;13.70;12.23;;;16.70;56.00;;;;;;5073071;28;46910;-72
2022/11/08 01:32:49;;;;;;;36.30;25.55;;;16.70;56.00;;;;;;5073088;28;45223;-70
2022/11/08 01:35:16;;;;;;;27.05;21.90;;;16.70;56.80;;;;;;5073304;28;45311;-72
2022/11/08 01:37:43;;;;;;;25.70;22.30;;;16.80;56.60;;;;;;5073546;28;45380;-72
2022/11/08 01:40:12;;;;;;;20.45;18.35;;;16.90;56.40;;;;;;5072519;28;45552;-73
2022/11/08 01:42:39;;;;;;;13.35;11.95;;;16.90;56.10;;;;;;5052867;28;45624;-72
2022/11/08 01:45:07;;;;;;;13.77;12.38;;;16.90;55.30;;;;;;5053032;28;45321;-72
2022/11/08 01:47:34;;;;;;;14.63;12.50;;;16.90;55.40;;;;;;5052903;28;45583;-70
2022/11/08 01:50:01;;;;;;;13.00;11.73;;;16.80;55.50;;;;;;5052393;28;46383;-71
2022/11/08 01:52:30;;;;;;;14.23;12.48;;;16.80;55.60;;;;;;5052719;28;45258;-75
2022/11/08 01:55:03;;;;;;;13.40;11.43;;;16.80;55.80;;;;;;5052931;28;45306;-74
2022/11/08 01:57:35;;;;;;;12.82;11.52;;;16.70;55.80;;;;;;5053510;28;45296;-74
2022/11/08 02:00:04;;;;;;;13.48;11.18;;;16.60;56.00;;;;;;5052557;28;46417;-73
2022/11/08 02:02:32;;;;;;;14.70;11.25;;;16.60;56.00;;;;;;5052208;28;45305;-74
2022/11/08 02:04:59;;;;;;;12.38;10.77;;;16.60;56.10;;;;;;5060452;28;45431;-71
2022/11/08 02:07:26;;;;;;;11.43;10.02;;;16.50;56.00;;;;;;5072134;28;45258;-71
2022/11/08 02:09:53;;;;;;;11.43;10.23;;;16.50;56.00;;;;;;5071757;28;45325;-72
2022/11/08 02:12:20;;;;;;;12.48;10.10;;;16.40;56.20;;;;;;5072124;28;45293;-73
2022/11/08 02:14:49;;;;;;;11.80;10.52;;;16.40;56.30;;;;;;5072528;28;45496;-72
2022/11/08 02:17:16;;;;;;;12.25;10.57;;;16.30;56.40;;;;;;5072217;28;45168;-72
2022/11/08 02:19:44;;;;;;;11.10;9.80;;;16.20;56.50;;;;;;5072202;28;46383;-72
2022/11/08 02:22:18;;;;;;;12.52;8.93;;;16.10;56.50;;;;;;5072116;28;45256;-72
2022/11/08 02:24:46;;;;;;;10.60;9.50;;;16.10;56.70;;;;;;5068760;28;45373;-72
2022/11/08 02:27:13;;;;;;;10.20;9.20;;;16.10;57.00;;;;;;5068881;28;45406;-72
2022/11/08 02:29:40;;;;;;;10.40;9.15;;;16.00;56.80;;;;;;5068730;28;46421;-72
2022/11/08 02:32:07;;;;;;;10.65;8.85;;;16.00;56.80;;;;;;5068571;28;45306;-72
2022/11/08 02:34:36;;;;;;;10.70;8.27;;;16.00;56.90;;;;;;5068667;28;45301;-72
2022/11/08 02:37:04;;;;;;;10.50;8.80;;;15.90;56.80;;;;;;5068899;28;45301;-72
2022/11/08 02:39:31;;;;;;;9.25;8.15;;;15.90;56.90;;;;;;5068493;28;46363;-72
2022/11/08 02:42:00;;;;;;;10.38;8.55;;;15.90;57.50;;;;;;5068410;28;45195;-72
2022/11/08 02:44:27;;;;;;;10.90;8.00;;;15.80;57.00;;;;;;5068713;28;45288;-72
2022/11/08 02:46:54;;;;;;;8.43;7.55;;;15.70;57.20;;;;;;5068761;28;45273;-72
2022/11/08 02:49:21;;;;;;;9.05;8.15;;;15.70;57.20;;;;;;5068334;28;46689;-72
2022/11/08 02:51:48;;;;;;;9.13;7.82;;;15.60;57.30;;;;;;5068175;28;45204;-72
2022/11/08 02:54:15;;;;;;;9.00;8.10;;;15.60;57.40;;;;;;5068557;28;45450;-72
2022/11/08 02:56:51;;;;;;;10.15;7.93;;;15.50;57.50;;;;;;5067822;28;45478;-72
2022/11/08 02:59:20;;;;;;;8.02;7.22;;;15.50;57.60;;;;;;5067491;28;46469;-72
2022/11/08 03:01:46;;;;;;;8.73;7.82;;;15.40;57.80;;;;;;5068192;28;45241;-72
2022/11/08 03:04:13;;;;;;;8.63;7.70;;;15.30;57.70;;;;;;5068179;28;45423;-72
2022/11/08 03:06:40;;;;;;;8.07;7.28;;;15.30;57.90;;;;;;5068549;28;45348;-72
2022/11/08 03:09:07;;;;;;;8.00;7.20;;;15.30;57.90;;;;;;5068261;28;46758;-72
2022/11/08 03:11:34;;;;;;;7.68;6.97;;;15.20;58.00;;;;;;5067915;28;45338;-72
2022/11/08 03:14:01;;;;;;;7.47;6.68;;;15.20;58.00;;;;;;5068207;28;45245;-72
2022/11/08 03:16:29;;;;;;;8.05;7.18;;;15.20;58.00;;;;;;5068270;28;45460;-72
2022/11/08 03:18:56;;;;;;;8.13;6.65;;;15.20;58.10;;;;;;5067802;28;46397;-72
2022/11/08 03:21:23;;;;;;;8.23;6.68;;;15.20;58.10;;;;;;5067935;28;45289;-71
2022/11/08 03:23:50;;;;;;;6.93;6.22;;;15.10;58.00;;;;;;5067999;28;45202;-72
2022/11/08 03:26:17;;;;;;;6.88;6.10;;;15.10;58.00;;;;;;5068302;28;45464;-73
2022/11/08 03:28:44;;;;;;;10.07;6.43;;;15.10;57.90;;;;;;5067669;28;45334;-73
2022/11/08 03:31:10;;;;;;;8.05;6.45;;;15.10;58.00;;;;;;5067703;28;45329;-72
2022/11/08 03:33:39;;;;;;;7.65;6.93;;;15.10;58.10;;;;;;5067602;28;45296;-72
2022/11/08 03:36:06;;;;;;;6.75;6.07;;;15.00;58.60;;;;;;5067899;28;45404;-72
2022/11/08 03:38:33;;;;;;;8.30;6.18;;;15.00;58.10;;;;;;5067345;28;45444;-71
2022/11/08 03:40:59;;;;;;;6.55;5.78;;;15.00;58.10;;;;;;5066975;28;45217;-72
2022/11/08 03:43:26;;;;;;;7.22;6.15;;;15.00;58.10;;;;;;5067897;28;45349;-72
2022/11/08 03:45:53;;;;;;;6.90;5.65;;;15.00;58.20;;;;;;5067750;28;45285;-72
2022/11/08 03:48:22;;;;;;;7.10;5.45;;;15.00;58.10;;;;;;5067536;28;46403;-72
2022/11/08 03:50:50;;;;;;;6.25;5.65;;;15.00;58.10;;;;;;5067443;28;45253;-72
2022/11/08 03:53:17;;;;;;;6.40;5.53;;;14.90;58.10;;;;;;5067550;28;45288;-72
2022/11/08 03:55:44;;;;;;;6.13;5.40;;;14.90;58.70;;;;;;5067740;28;45289;-72
2022/11/08 03:58:11;;;;;;;5.93;5.32;;;14.90;58.10;;;;;;5067170;28;45167;-72
2022/11/08 04:00:38;;;;;;;6.13;5.53;;;14.90;58.20;;;;;;5067531;28;45298;-72
2022/11/08 04:03:04;;;;;;;7.50;5.47;;;14.90;58.30;;;;;;5067363;28;45349;-72
2022/11/08 04:05:32;;;;;;;5.63;4.93;;;14.90;58.30;;;;;;5054804;28;45304;-72
2022/11/08 04:08:00;;;;;;;6.32;4.97;;;14.80;58.20;;;;;;5046779;28;45356;-72
2022/11/08 04:10:27;;;;;;;5.55;5.05;;;14.80;58.20;;;;;;5047042;28;45199;-72
2022/11/08 04:15:38;;;;;;;7.53;5.50;;;14.80;58.30;;;;;;5044734;28;45247;-72
2022/11/08 04:23:46;;;;;;;5.20;4.68;;;14.80;58.30;;;;;;5044471;28;45242;-72
2022/11/08 04:26:12;;;;;;;6.45;5.30;;;14.70;58.90;;;;;;5047017;28;45235;-72
2022/11/08 04:28:40;;;;;;;5.50;4.75;;;14.70;58.40;;;;;;5046673;28;45426;-72
2022/11/08 04:31:08;;;;;;;5.32;4.82;;;14.70;58.40;;;;;;5046750;28;45183;-72
2022/11/08 04:33:35;;;;;;;5.80;4.70;;;14.70;58.40;;;;;;5046697;28;45307;-71
2022/11/08 04:36:02;;;;;;;5.50;4.75;;;14.70;58.40;;;;;;5046945;28;45290;-71
2022/11/08 04:38:30;;;;;;;6.75;4.47;;;14.70;58.50;;;;;;5046455;28;45276;-72
2022/11/08 04:41:02;;;;;;;8.20;4.25;;;14.70;58.40;;;;;;5065544;28;45145;-71
2022/11/08 04:43:29;;;;;;;5.38;4.35;;;14.60;58.50;;;;;;5066944;28;45360;-72
2022/11/08 04:46:01;;;;;;;4.25;3.85;;;14.60;58.40;;;;;;5066933;28;45134;-71
2022/11/08 04:48:27;;;;;;;8.45;4.30;;;14.60;58.50;;;;;;5065313;28;47332;-72
2022/11/08 04:50:54;;;;;;;5.03;4.53;;;14.60;58.50;;;;;;5066278;28;45367;-72
2022/11/08 04:53:21;;;;;;;4.60;4.20;;;14.60;58.50;;;;;;5066573;28;45345;-72
2022/11/08 04:55:48;;;;;;;5.68;4.30;;;14.60;58.60;;;;;;5066728;28;45199;-72
2022/11/08 04:58:17;;;;;;;5.03;4.15;;;14.60;58.60;;;;;;5066323;28;46421;-72
2022/11/08 05:00:44;;;;;;;4.78;4.28;;;14.50;58.60;;;;;;5066317;28;45293;-71
2022/11/08 05:03:11;;;;;;;5.15;3.90;;;14.50;58.70;;;;;;5066608;28;45315;-72
2022/11/08 05:05:37;;;;;;;3.90;3.60;;;14.50;58.70;;;;;;5066602;28;45483;-71
2022/11/08 05:08:05;;;;;;;4.57;4.18;;;14.50;58.70;;;;;;5066175;28;45227;-72
2022/11/08 05:10:32;;;;;;;4.53;4.00;;;14.50;58.70;;;;;;5066262;28;45451;-72
2022/11/08 05:12:59;;;;;;;3.92;3.58;;;14.50;58.70;;;;;;5066389;28;45324;-72
2022/11/08 05:15:27;;;;;;;5.50;3.75;;;14.50;58.70;;;;;;5066575;28;45399;-71
2022/11/08 05:17:54;;;;;;;4.60;3.70;;;14.50;58.70;;;;;;5065823;28;47528;-71
2022/11/08 05:25:49;;;;;;;4.30;3.67;;;14.40;58.70;;;;;;5063808;28;45253;-71
2022/11/08 05:28:16;;;;;;;4.25;3.60;;;14.40;58.70;;;;;;5065844;28;45263;-71
2022/11/08 05:30:44;;;;;;;4.35;3.63;;;14.40;58.70;;;;;;5065968;28;45309;-71
2022/11/08 05:33:14;;;;;;;4.00;3.60;;;14.40;58.80;;;;;;5066101;28;45409;-71
2022/11/08 05:35:41;;;;;;;3.75;3.38;;;14.40;58.80;;;;;;5066349;28;45457;-71
2022/11/08 05:38:08;;;;;;;4.88;3.50;;;14.30;58.80;;;;;;5065817;28;45397;-71
2022/11/08 05:40:35;;;;;;;3.83;3.20;;;14.30;58.80;;;;;;5065651;28;45426;-71
2022/11/08 05:43:01;;;;;;;3.85;3.40;;;14.30;58.80;;;;;;5065464;28;45266;-72
2022/11/08 05:45:28;;;;;;;4.20;3.60;;;14.30;58.80;;;;;;5065830;28;45256;-71
2022/11/08 05:48:02;;;;;;;4.38;3.30;;;14.30;58.90;;;;;;5065630;28;46267;-71
2022/11/08 05:50:29;;;;;;;3.83;3.42;;;14.30;58.90;;;;;;5065960;28;45241;-74
2022/11/08 05:52:56;;;;;;;4.07;3.40;;;14.30;58.90;;;;;;5065770;28;45202;-71
2022/11/08 05:55:23;;;;;;;2.97;2.78;;;14.30;58.80;;;;;;5065837;28;45494;-71
2022/11/08 05:57:50;;;;;;;3.63;3.10;;;14.30;58.90;;;;;;5065638;28;45597;-71
2022/11/08 06:00:17;;;;;;;3.50;3.15;;;14.20;58.80;;;;;;5068149;28;45194;-71
2022/11/08 06:02:44;;;;;;;3.67;3.20;;;14.20;58.90;;;;;;5069308;28;45263;-71
2022/11/08 06:05:12;;;;;;;3.50;3.20;;;14.20;59.50;;;;;;5059387;28;45506;-71
2022/11/08 06:07:39;;;;;;;3.85;2.90;;;14.20;58.90;;;;;;5048823;28;46379;-71
2022/11/08 06:10:07;;;;;;;3.67;3.00;;;14.20;59.00;;;;;;5048828;28;45401;-71
2022/11/08 06:12:34;;;;;;;3.35;2.58;;;14.20;59.00;;;;;;5048871;28;45191;-71
2022/11/08 06:15:01;;;;;;;3.40;3.10;;;14.20;59.00;;;;;;5049052;28;45516;-71
2022/11/08 06:17:28;;;;;;;3.38;3.08;;;14.20;59.00;;;;;;5048332;28;46688;-71
2022/11/08 06:19:55;;;;;;;3.45;2.88;;;14.10;59.00;;;;;;5048690;28;45403;-71
2022/11/08 06:22:23;;;;;;;3.42;2.78;;;14.10;59.00;;;;;;5048676;28;45314;-71
2022/11/08 06:24:50;;;;;;;4.78;3.42;;;14.10;59.00;;;;;;5067575;28;45352;-73
2022/11/08 06:27:21;;;;;;;3.53;3.10;;;14.10;59.00;;;;;;5068746;28;46331;-71
2022/11/08 06:29:49;;;;;;;2.85;2.58;;;14.10;59.00;;;;;;5068218;28;45191;-71
2022/11/08 06:32:16;;;;;;;3.42;2.70;;;14.10;59.00;;;;;;5068259;28;45231;-71
2022/11/08 06:34:44;;;;;;;2.90;2.60;;;14.10;59.10;;;;;;5069015;28;45194;-71
2022/11/08 06:37:11;;;;;;;2.78;2.53;;;14.10;59.70;;;;;;5068527;28;46685;-71
2022/11/08 06:39:40;;;;;;;4.00;2.95;;;14.10;59.10;;;;;;5068253;28;45226;-71
2022/11/08 06:42:08;;;;;;;3.20;2.80;;;14.10;59.10;;;;;;5068614;28;45190;-71
2022/11/08 06:44:34;;;;;;;2.85;2.65;;;14.00;59.10;;;;;;5068976;28;45318;-71
2022/11/08 06:47:01;;;;;;;4.32;2.50;;;14.00;59.10;;;;;;5068279;28;45284;-71
2022/11/08 06:49:28;;;;;;;3.55;2.78;;;14.00;59.10;;;;;;5068172;28;45230;-70
2022/11/08 06:51:55;;;;;;;2.65;2.45;;;14.00;59.10;;;;;;5068472;28;45253;-71
2022/11/08 06:54:22;;;;;;;3.70;3.28;;;14.00;59.10;;;;;;5068451;28;45567;-71
2022/11/08 06:56:50;;;;;;;4.03;2.70;;;14.00;59.10;;;;;;5068167;28;45433;-71
2022/11/08 06:59:17;;;;;;;2.90;2.58;;;14.00;59.20;;;;;;5068254;28;45364;-71
2022/11/08 07:01:44;;;;;;;3.33;2.67;;;14.00;59.70;;;;;;5068408;28;45288;-72
2022/11/08 07:04:12;;;;;;;3.10;2.80;;;14.00;59.30;;;;;;5068350;28;45289;-72
2022/11/08 07:06:38;;;;;;;3.47;2.78;;;14.00;59.20;;;;;;5068107;28;45298;-71
2022/11/08 07:09:05;;;;;;;2.60;2.40;;;14.00;59.20;;;;;;5068082;28;45297;-71
2022/11/08 07:11:32;;;;;;;2.65;2.45;;;14.00;59.20;;;;;;5067392;28;45455;-71
2022/11/08 07:14:00;;;;;;;2.83;2.45;;;14.00;59.20;;;;;;5067859;28;45408;-71
2022/11/08 07:16:27;;;;;;;2.72;2.42;;;14.00;59.20;;;;;;5067130;28;47399;-72
2022/11/08 07:18:55;;;;;;;2.78;2.58;;;14.00;59.30;;;;;;5067631;28;45246;-71
2022/11/08 07:21:23;;;;;;;2.50;2.33;;;14.00;59.30;;;;;;5068018;28;45415;-72
2022/11/08 07:23:50;;;;;;;2.75;2.55;;;14.00;59.20;;;;;;5068032;28;45373;-72
2022/11/08 07:26:17;;;;;;;3.13;2.40;;;14.00;59.20;;;;;;5067677;28;46374;-72
2022/11/08 07:28:43;;;;;;;2.75;2.47;;;14.00;59.20;;;;;;5068005;28;45491;-72
2022/11/08 07:31:12;;;;;;;3.15;2.60;;;14.00;59.20;;;;;;5067822;28;45293;-72
2022/11/08 07:33:39;;;;;;;2.42;2.30;;;14.00;59.30;;;;;;5068049;28;45293;-72
2022/11/08 07:36:06;;;;;;;3.13;2.60;;;14.00;59.60;;;;;;5067591;28;45387;-72
2022/11/08 07:38:33;;;;;;;2.45;2.25;;;14.00;59.30;;;;;;5067713;28;45190;-72
2022/11/08 07:41:01;;;;;;;2.70;2.28;;;14.00;59.30;;;;;;5067687;28;45324;-72
2022/11/08 07:43:28;;;;;;;2.63;2.40;;;14.00;59.30;;;;;;5067880;28;45421;-71
2022/11/08 07:45:56;;;;;;;3.47;2.65;;;14.00;59.90;;;;;;5067363;28;46477;-72
2022/11/08 07:48:24;;;;;;;2.40;2.20;;;14.00;59.30;;;;;;5067522;28;45259;-72
2022/11/08 07:50:51;;;;;;;3.17;2.35;;;14.00;59.30;;;;;;5067718;28;45349;-72
2022/11/08 07:53:18;;;;;;;3.78;2.55;;;14.00;59.30;;;;;;5067785;28;45326;-72
2022/11/08 07:55:45;;;;;;;2.47;2.28;;;14.00;59.30;;;;;;5067582;28;48511;-72
2022/11/08 07:58:12;;;;;;;2.40;2.20;;;14.00;59.30;;;;;;5067202;28;45237;-71
2022/11/08 08:00:40;;;;;;;2.65;2.33;;;14.00;59.30;;;;;;5066758;28;45271;-71
2022/11/08 08:03:07;;;;;;;2.50;2.30;;;14.00;59.30;;;;;;5067752;28;45311;-72
2022/11/08 08:05:36;;;;;;;2.75;2.40;;;14.00;59.30;;;;;;5067321;28;46431;-72
2022/11/08 08:08:03;;;;;;;2.60;2.10;;;14.00;59.30;;;;;;5067398;28;45263;-72
2022/11/08 08:10:30;;;;;;;2.20;2.00;;;14.00;59.30;;;;;;5067412;28;45364;-72
2022/11/08 08:12:57;;;;;;;2.63;2.42;;;14.00;59.30;;;;;;5067522;28;45303;-72
2022/11/08 08:15:24;;;;;;;3.42;2.53;;;14.00;59.30;;;;;;5067327;28;45302;-72
2022/11/08 08:17:51;;;;;;;2.08;1.92;;;14.00;59.30;;;;;;5066632;28;45212;-72
2022/11/08 08:20:18;;;;;;;2.60;2.40;;;14.00;59.30;;;;;;5067347;28;45385;-72
2022/11/08 08:22:46;;;;;;;2.60;2.40;;;14.00;59.30;;;;;;5066589;28;45398;-72
2022/11/08 08:25:13;;;;;;;2.67;2.15;;;14.00;59.30;;;;;;5066993;28;46415;-72
2022/11/08 08:27:40;;;;;;;2.50;2.30;;;14.00;59.30;;;;;;5067169;28;45201;-71
2022/11/08 08:30:08;;;;;;;2.40;2.20;;;14.00;59.30;;;;;;5067642;28;45189;-72
2022/11/08 08:32:35;;;;;;;2.30;2.10;;;14.00;59.20;;;;;;5067179;28;45325;-72
2022/11/08 08:35:02;;;;;;;2.53;2.20;;;14.10;59.80;;;;;;5066862;28;45410;-72
2022/11/08 08:37:29;;;;;;;2.47;2.25;;;14.10;59.20;;;;;;5067401;28;45337;-71
2022/11/08 08:39:57;;;;;;;2.28;2.03;;;14.10;59.10;;;;;;5067228;28;45309;-72
2022/11/08 08:42:24;;;;;;;2.28;1.90;;;14.10;59.10;;;;;;5067322;28;45148;-72
2022/11/08 08:44:51;;;;;;;2.15;1.98;;;14.20;59.10;;;;;;5065935;28;46680;-72
2022/11/08 08:47:17;;;;;;;2.40;2.20;;;14.20;59.60;;;;;;5066825;28;45411;-72
2022/11/08 08:49:44;;;;;;;2.35;2.05;;;14.20;58.90;;;;;;5067216;28;45307;-72
2022/11/08 08:52:11;;;;;;;2.30;2.10;;;14.20;58.90;;;;;;5067060;28;45287;-72
2022/11/08 08:54:38;;;;;;;2.35;2.15;;;14.20;58.90;;;;;;5066685;28;46740;-72
2022/11/08 08:57:06;;;;;;;2.13;1.92;;;14.20;58.90;;;;;;5066536;28;45371;-71
2022/11/08 08:59:33;;;;;;;2.60;2.10;;;14.20;58.80;;;;;;5066817;28;45330;-72
2022/11/08 09:02:00;;;;;;;2.45;2.25;;;14.30;58.90;;;;;;5066797;28;45338;-72
2022/11/08 09:04:27;;;;;;;2.53;2.10;;;14.30;58.90;;;;;;5062984;28;45307;-72
2022/11/08 09:06:54;;;;;;;2.25;2.05;;;14.30;59.00;;;;;;5046272;28;45194;-72
2022/11/08 09:09:21;;;;;;;2.15;1.95;;;14.30;59.50;;;;;;5045927;28;45297;-73
2022/11/08 09:11:48;;;;;;;3.13;2.20;;;14.30;59.00;;;;;;5046811;28;45247;-72
2022/11/08 09:14:17;;;;;;;3.28;2.20;;;14.30;59.20;;;;;;5045996;28;46445;-72
2022/11/08 09:16:43;;;;;;;4.43;2.45;;;14.40;59.20;;;;;;5046236;28;45218;-72
2022/11/08 09:19:11;;;;;;;2.05;1.85;;;14.40;59.10;;;;;;5045876;28;45456;-72
2022/11/08 09:21:37;;;;;;;2.22;2.08;;;14.40;58.90;;;;;;5046374;28;45239;-72
2022/11/08 09:24:05;;;;;;;1.80;1.70;;;14.50;58.90;;;;;;5046099;28;45359;-72
2022/11/08 09:26:31;;;;;;;2.88;1.98;;;14.50;58.80;;;;;;5046004;28;45250;-72
2022/11/08 09:28:59;;;;;;;2.03;1.77;;;14.50;58.80;;;;;;5045357;28;45280;-72
2022/11/08 09:31:27;;;;;;;2.03;1.88;;;14.50;58.80;;;;;;5046320;28;45356;-71
2022/11/08 09:33:54;;;;;;;2.97;1.90;;;14.50;58.80;;;;;;5047781;28;45412;-72
2022/11/08 09:36:21;;;;;;;2.00;1.80;;;14.50;58.80;;;;;;5058397;28;45238;-72
2022/11/08 09:38:48;;;;;;;2.20;2.00;;;14.60;58.70;;;;;;5069700;28;45244;-72
2022/11/08 09:41:35;;;;;;;1.90;1.80;;;14.60;58.80;;;;;;5069688;28;45229;-72
2022/11/08 09:44:11;;;;;;;2.25;2.05;;;14.60;58.90;;;;;;5069624;28;46414;-72
2022/11/08 09:46:42;;;;;;;2.03;1.77;;;14.60;58.80;;;;;;5069456;28;45377;-72
2022/11/08 09:49:13;;;;;;;1.75;1.65;;;14.60;58.80;;;;;;5069700;28;45188;-72
2022/11/08 09:51:40;;;;;;;2.53;2.08;;;14.60;58.80;;;;;;5069824;28;45508;-72
2022/11/08 09:54:07;;;;;;;1.80;1.70;;;14.70;58.80;;;;;;5069469;28;46713;-72
2022/11/08 09:56:35;;;;;;;2.13;1.80;;;14.70;58.80;;;;;;5069395;28;45261;-72
2022/11/08 09:59:04;;;;;;;2.03;1.75;;;14.80;58.70;;;;;;5069610;28;45266;-72
2022/11/08 10:01:32;;;;;;;1.88;1.77;;;14.80;58.60;;;;;;5069643;28;45203;-75
2022/11/08 10:04:02;;;;;;;2.08;1.65;;;14.90;58.50;;;;;;5069318;28;46549;-74
2022/11/08 10:06:38;;;;;;;2.45;2.00;;;14.90;58.30;;;;;;5049072;28;45301;-72
2022/11/08 10:09:10;;;;;;;2.22;1.65;;;15.00;58.20;;;;;;5049388;28;45323;-71
2022/11/08 10:11:44;;;;;;;3.00;2.13;;;15.10;58.20;;;;;;5049454;28;45288;-72
2022/11/08 10:14:19;;;;;;;1.80;1.70;;;15.10;58.10;;;;;;5048957;28;46417;-72
2022/11/08 10:16:48;;;;;;;1.98;1.83;;;15.20;58.00;;;;;;5048924;28;45301;-72
2022/11/08 10:19:35;;;;;;;2.05;1.83;;;15.20;57.80;;;;;;5048865;28;45470;-72
2022/11/08 10:22:03;;;;;;;2.00;1.80;;;15.20;58.30;;;;;;5047566;28;45489;-72
2022/11/08 10:24:34;;;;;;;2.03;1.83;;;15.30;57.60;;;;;;5068514;28;45254;-72
2022/11/08 10:27:01;;;;;;;2.50;1.70;;;15.40;58.20;;;;;;5068804;28;45178;-73
2022/11/08 10:29:31;;;;;;;2.20;1.88;;;15.50;57.50;;;;;;5069005;28;45194;-72
2022/11/08 10:32:00;;;;;;;1.67;1.58;;;15.50;57.40;;;;;;5068917;28;45345;-73
2022/11/08 10:34:29;;;;;;;1.95;1.80;;;15.60;57.30;;;;;;5068524;28;45318;-72
2022/11/08 10:36:59;;;;;;;2.15;1.73;;;15.60;57.20;;;;;;5068888;28;45424;-72
2022/11/08 10:39:26;;;;;;;1.63;1.52;;;15.70;56.90;;;;;;5068796;28;45317;-72
2022/11/08 10:41:57;;;;;;;1.85;1.67;;;15.80;56.90;;;;;;5068989;28;45245;-72
2022/11/08 10:44:25;;;;;;;1.77;1.63;;;15.80;56.50;;;;;;5067517;28;46308;-72
2022/11/08 10:46:57;;;;;;;3.50;2.03;;;15.90;56.30;;;;;;5067964;28;45241;-72
2022/11/08 10:49:25;;;;;;;1.98;1.75;;;16.00;56.70;;;;;;5068792;28;45297;-72
2022/11/08 10:51:54;;;;;;;2.13;1.90;;;16.00;56.70;;;;;;5068871;28;45261;-72
2022/11/08 10:54:44;;;;;;;2.72;1.85;;;16.00;56.80;;;;;;5068137;28;46850;-72
2022/11/08 10:57:12;;;;;;;2.33;1.70;;;16.00;57.00;;;;;;5057825;28;45194;-72
2022/11/08 10:59:39;;;;;;;2.22;1.73;;;16.00;58.00;;;;;;5048539;28;45207;-72
2022/11/08 11:02:26;;;;;;;1.95;1.67;;;15.90;57.40;;;;;;5048733;28;45208;-72
2022/11/08 11:04:54;;;;;;;2.25;1.55;;;15.90;57.20;;;;;;5055316;28;45498;-72
2022/11/08 11:07:35;;;;;;;2.10;1.73;;;15.90;57.90;;;;;;5068457;28;45238;-72
2022/11/08 11:10:20;;;;;;;1.75;1.65;;;15.90;58.10;;;;;;5068485;28;45369;-73
2022/11/08 11:12:49;;;;;;;1.67;1.58;;;15.90;58.10;;;;;;5068653;28;45364;-74
2022/11/08 11:15:16;;;;;;;1.60;1.50;;;15.90;58.40;;;;;;5068403;28;46673;-72
2022/11/08 11:17:44;;;;;;;1.50;1.40;;;15.90;58.40;;;;;;5067846;28;45697;-72
2022/11/08 11:20:20;;;;;;;1.80;1.70;;;15.90;58.50;;;;;;5068592;28;45440;-72
2022/11/08 11:22:48;;;;;;;1.85;1.65;;;15.90;58.40;;;;;;5068331;28;45490;-72
2022/11/08 11:25:16;;;;;;;2.10;1.60;;;15.90;58.60;;;;;;5068042;28;46337;-73
2022/11/08 11:27:43;;;;;;;2.53;1.48;;;16.00;58.60;;;;;;5068119;28;45209;-72
2022/11/08 11:30:21;;;;;;;2.10;1.65;;;16.00;59.30;;;;;;5068358;28;45174;-73
2022/11/08 11:33:12;;;;;;;1.85;1.75;;;16.00;58.60;;;;;;5068382;28;45369;-72
2022/11/08 11:35:44;;;;;;;1.77;1.67;;;16.00;58.70;;;;;;5067089;28;46395;-72
2022/11/08 11:38:30;;;;;;;1.70;1.60;;;16.10;58.80;;;;;;5067606;28;45332;-73
2022/11/08 11:40:59;;;;;;;1.70;1.60;;;16.10;58.70;;;;;;5067624;28;45292;-73
2022/11/08 11:43:29;;;;;;;1.73;1.63;;;16.20;58.70;;;;;;5068143;28;45286;-72
2022/11/08 11:45:58;;;;;;;1.80;1.70;;;16.30;58.60;;;;;;5067769;28;45250;-74
2022/11/08 11:48:27;;;;;;;2.65;1.80;;;16.50;58.60;;;;;;5068416;28;45255;-75
2022/11/08 11:50:54;;;;;;;1.42;1.33;;;16.60;59.20;;;;;;5067931;28;45286;-73
2022/11/08 11:53:22;;;;;;;1.08;1.08;;;16.80;59.10;;;;;;5060235;28;45441;-73
2022/11/08 11:56:15;;;;;;;3.65;1.70;;;17.00;59.10;;;;;;5067185;28;45214;-73
2022/11/08 11:59:04;;;;;;;3.20;1.25;;;17.10;58.80;;;;;;5068867;28;45203;-75
2022/11/08 12:01:38;;;;;;;1.48;1.30;;;17.20;58.70;;;;;;5057968;28;45301;-75
2022/11/08 12:04:22;;;;;;;1.83;1.25;;;17.30;58.70;;;;;;5067954;28;45291;-75
2022/11/08 12:06:50;;;;;;;1.38;1.20;;;17.40;58.60;;;;;;5047675;28;45319;-75
2022/11/08 12:09:27;;;;;;;1.20;1.10;;;17.50;58.30;;;;;;5048034;28;45282;-72
2022/11/08 12:12:02;;;;;;;1.30;1.20;;;17.50;58.20;;;;;;5056128;28;45310;-74
2022/11/08 12:14:44;;;;;;;1.33;1.23;;;17.60;59.40;;;;;;5067830;28;45294;-72
2022/11/08 12:17:33;;;;;;;4.47;1.48;;;17.70;59.00;;;;;;5067164;28;45941;-72
2022/11/08 12:20:11;;;;;;;1.75;1.13;;;17.80;58.10;;;;;;5066543;28;45554;-79
2022/11/08 12:22:51;;;;;;;2.88;1.25;;;18.00;58.60;;;;;;5062994;28;45443;-73
2022/11/08 12:25:20;;;;;;;2.38;1.02;;;18.10;58.20;;;;;;5067245;28;45400;-73
2022/11/08 12:27:50;;;;;;;6.93;3.45;;;18.20;57.10;;;;;;5051685;28;45306;-76
2022/11/08 12:30:18;;;;;;;27.52;13.18;;;18.40;57.70;;;;;;5064961;28;45330;-74
2022/11/08 12:32:59;;;;;;;21.48;11.77;;;18.70;56.90;;;;;;5066164;28;45370;-72
2022/11/08 12:35:31;;;;;;;16.52;9.68;;;18.90;56.80;;;;;;5062215;28;45826;-73
2022/11/08 12:38:04;;;;;;;17.50;11.40;;;19.10;53.60;;;;;;5159243;22;46930;-76
2022/11/08 12:40:34;;;;;;;6.15;4.60;;;19.20;52.60;;;;;;5172550;22;45449;-75
2022/11/08 12:43:09;;;;;;;3.80;3.10;;;19.30;50.90;;;;;;5067161;28;45201;-74
2022/11/08 12:46:00;;;;;;;3.95;2.15;;;19.40;50.70;;;;;;5067103;28;45313;-72
2022/11/08 12:48:40;;;;;;;4.35;2.22;;;19.40;50.30;;;;;;5066217;28;46356;-73
2022/11/08 12:51:10;;;;;;;3.58;2.40;;;19.50;49.00;;;;;;5066801;28;45127;-74
2022/11/08 12:54:08;;;;;;;5.25;2.70;;;19.50;48.10;;;;;;5057027;28;45351;-78
2022/11/08 12:56:36;;;;;;;2.60;2.05;;;19.50;47.50;;;;;;5066146;28;45259;-73
2022/11/08 12:59:04;;;;;;;4.15;2.85;;;19.50;47.40;;;;;;5066274;28;46368;-72
2022/11/08 13:01:31;;;;;;;6.70;2.65;;;19.50;48.60;;;;;;5071438;28;45372;-74
2022/11/08 13:04:20;;;;;;;3.70;2.63;;;19.50;48.60;;;;;;5064219;28;45296;-73
2022/11/08 13:06:50;;;;;;;2.67;1.98;;;19.50;48.40;;;;;;5063703;28;45403;-72
2022/11/08 13:09:22;;;;;;;3.30;1.92;;;19.60;48.30;;;;;;5061384;28;46367;-75
2022/11/08 13:11:52;;;;;;;10.52;5.50;;;19.70;47.30;;;;;;5055897;28;45343;-74
2022/11/08 13:14:20;;;;;;;5.93;3.33;;;19.80;48.10;;;;;;5063640;28;46763;-74
2022/11/08 13:17:17;;;;;;;2.22;1.70;;;19.80;47.60;;;;;;5059628;28;45699;-75
2022/11/08 13:20:03;;;;;;;3.55;1.60;;;19.80;46.70;;;;;;5053012;28;45371;-75